sensor_id;sensor_type;location;lat;lon;timestamp;pressure;altitude;pressure_sealevel;temperature;humidity
39739;BME280;25422;48.286;8.484;2024-01-16T00:01:15;93408.97;;;-6.23;100.00
39739;BME280;25422;48.286;8.484;2024-01-16T00:03:43;93399.53;;;-6.21;100.00
39739;BME280;25422;48.286;8.484;2024-01-16T00:06:09;93410.00;;;-6.11;100.00
39739;BME280;25422;48.286;8.484;2024-01-16T00:08:35;93402.16;;;-6.08;100.00
39739;BME280;25422;48.286;8.484;2024-01-16T00:11:01;93400.91;;;-6.15;100.00
39739;BME280;25422;48.286;8.484;2024-01-16T00:13:27;93404.53;;;-6.19;100.00
39739;BME280;25422;48.286;8.484;2024-01-16T00:15:52;93401.19;;;-6.20;100.00
39739;BME280;25422;48.286;8.484;2024-01-16T00:18:18;93398.88;;;-6.24;100.00
39739;BME280;25422;48.286;8.484;2024-01-16T00:20:44;93395.53;;;-6.25;100.00
39739;BME280;25422;48.286;8.484;2024-01-16T00:23:09;93387.28;;;-6.45;100.00
39739;BME280;25422;48.286;8.484;2024-01-16T00:25:35;93389.34;;;-6.51;100.00
39739;BME280;25422;48.286;8.484;2024-01-16T00:28:01;93389.03;;;-6.45;100.00
39739;BME280;25422;48.286;8.484;2024-01-16T00:30:27;93389.63;;;-6.56;100.00
39739;BME280;25422;48.286;8.484;2024-01-16T00:32:52;93395.59;;;-6.71;100.00
39739;BME280;25422;48.286;8.484;2024-01-16T00:35:18;93400.69;;;-6.71;100.00
39739;BME280;25422;48.286;8.484;2024-01-16T00:37:44;93402.41;;;-6.88;100.00
39739;BME280;25422;48.286;8.484;2024-01-16T00:40:10;93395.84;;;-6.92;100.00
39739;BME280;25422;48.286;8.484;2024-01-16T00:42:35;93391.53;;;-6.90;100.00
39739;BME280;25422;48.286;8.484;2024-01-16T00:45:01;93388.91;;;-7.04;100.00
39739;BME280;25422;48.286;8.484;2024-01-16T00:47:26;93396.53;;;-7.04;100.00
39739;BME280;25422;48.286;8.484;2024-01-16T00:49:52;93396.78;;;-6.93;100.00
39739;BME280;25422;48.286;8.484;2024-01-16T00:52:18;93396.94;;;-6.96;100.00
39739;BME280;25422;48.286;8.484;2024-01-16T00:54:44;93397.44;;;-7.05;100.00
39739;BME280;25422;48.286;8.484;2024-01-16T00:57:09;93404.50;;;-7.10;100.00
39739;BME280;25422;48.286;8.484;2024-01-16T00:59:34;93399.75;;;-7.17;100.00
39739;BME280;25422;48.286;8.484;2024-01-16T01:02:00;93406.69;;;-7.20;100.00
39739;BME280;25422;48.286;8.484;2024-01-16T01:04:25;93392.28;;;-7.20;100.00
39739;BME280;25422;48.286;8.484;2024-01-16T01:06:51;93392.69;;;-7.12;100.00
39739;BME280;25422;48.286;8.484;2024-01-16T01:09:16;93389.75;;;-7.20;100.00
39739;BME280;25422;48.286;8.484;2024-01-16T01:11:42;93388.75;;;-7.33;100.00
39739;BME280;25422;48.286;8.484;2024-01-16T01:14:07;93393.50;;;-7.27;100.00
39739;BME280;25422;48.286;8.484;2024-01-16T01:16:33;93391.47;;;-7.36;100.00
39739;BME280;25422;48.286;8.484;2024-01-16T01:18:58;93389.25;;;-7.42;100.00
39739;BME280;25422;48.286;8.484;2024-01-16T01:21:24;93387.19;;;-7.52;100.00
39739;BME280;25422;48.286;8.484;2024-01-16T01:23:49;93390.56;;;-7.51;100.00
39739;BME280;25422;48.286;8.484;2024-01-16T01:26:15;93396.72;;;-7.55;100.00
39739;BME280;25422;48.286;8.484;2024-01-16T01:28:43;93393.19;;;-7.69;100.00
39739;BME280;25422;48.286;8.484;2024-01-16T01:31:10;93385.88;;;-7.75;100.00
39739;BME280;25422;48.286;8.484;2024-01-16T01:33:35;93398.06;;;-7.82;100.00
39739;BME280;25422;48.286;8.484;2024-01-16T01:36:01;93401.94;;;-7.74;100.00
39739;BME280;25422;48.286;8.484;2024-01-16T01:38:26;93396.75;;;-7.89;100.00
39739;BME280;25422;48.286;8.484;2024-01-16T01:40:51;93399.03;;;-7.84;100.00
39739;BME280;25422;48.286;8.484;2024-01-16T01:43:20;93401.69;;;-8.03;100.00
39739;BME280;25422;48.286;8.484;2024-01-16T01:46:08;93399.16;;;-8.03;100.00
39739;BME280;25422;48.286;8.484;2024-01-16T01:48:35;93405.09;;;-8.20;100.00
39739;BME280;25422;48.286;8.484;2024-01-16T01:51:01;93403.97;;;-8.32;100.00
39739;BME280;25422;48.286;8.484;2024-01-16T01:53:27;93406.00;;;-8.39;100.00
39739;BME280;25422;48.286;8.484;2024-01-16T01:55:54;93408.78;;;-8.43;100.00
39739;BME280;25422;48.286;8.484;2024-01-16T01:58:20;93405.69;;;-8.49;100.00
39739;BME280;25422;48.286;8.484;2024-01-16T02:00:46;93401.72;;;-8.54;100.00
39739;BME280;25422;48.286;8.484;2024-01-16T02:03:12;93404.38;;;-8.57;100.00
39739;BME280;25422;48.286;8.484;2024-01-16T02:05:39;93412.47;;;-8.67;100.00
39739;BME280;25422;48.286;8.484;2024-01-16T02:08:04;93405.38;;;-8.77;100.00
39739;BME280;25422;48.286;8.484;2024-01-16T02:10:31;93412.06;;;-8.76;100.00
39739;BME280;25422;48.286;8.484;2024-01-16T02:12:57;93420.25;;;-8.89;100.00
39739;BME280;25422;48.286;8.484;2024-01-16T02:15:23;93423.97;;;-8.96;100.00
39739;BME280;25422;48.286;8.484;2024-01-16T02:17:49;93427.16;;;-9.10;100.00
39739;BME280;25422;48.286;8.484;2024-01-16T02:20:14;93426.97;;;-9.24;100.00
39739;BME280;25422;48.286;8.484;2024-01-16T02:22:42;93425.69;;;-9.33;100.00
39739;BME280;25422;48.286;8.484;2024-01-16T02:25:11;93426.38;;;-9.49;100.00
39739;BME280;25422;48.286;8.484;2024-01-16T02:27:37;93413.44;;;-9.80;100.00
39739;BME280;25422;48.286;8.484;2024-01-16T02:30:02;93426.31;;;-10.06;100.00
39739;BME280;25422;48.286;8.484;2024-01-16T02:32:28;93431.34;;;-10.25;100.00
39739;BME280;25422;48.286;8.484;2024-01-16T02:34:53;93428.72;;;-10.42;100.00
39739;BME280;25422;48.286;8.484;2024-01-16T02:37:19;93425.34;;;-10.63;100.00
39739;BME280;25422;48.286;8.484;2024-01-16T02:39:44;93429.66;;;-10.86;100.00
39739;BME280;25422;48.286;8.484;2024-01-16T02:42:10;93423.50;;;-11.01;100.00
39739;BME280;25422;48.286;8.484;2024-01-16T02:44:35;93425.03;;;-11.19;100.00
39739;BME280;25422;48.286;8.484;2024-01-16T02:47:01;93426.34;;;-11.31;100.00
39739;BME280;25422;48.286;8.484;2024-01-16T02:49:27;93415.72;;;-11.39;100.00
39739;BME280;25422;48.286;8.484;2024-01-16T02:51:52;93426.09;;;-11.47;100.00
39739;BME280;25422;48.286;8.484;2024-01-16T02:54:18;93423.63;;;-11.48;100.00
39739;BME280;25422;48.286;8.484;2024-01-16T02:56:43;93424.63;;;-11.53;100.00
39739;BME280;25422;48.286;8.484;2024-01-16T02:59:09;93422.84;;;-11.50;100.00
39739;BME280;25422;48.286;8.484;2024-01-16T03:01:34;93423.97;;;-11.58;100.00
39739;BME280;25422;48.286;8.484;2024-01-16T03:04:00;93428.34;;;-11.63;100.00
39739;BME280;25422;48.286;8.484;2024-01-16T03:06:25;93433.63;;;-11.69;100.00
39739;BME280;25422;48.286;8.484;2024-01-16T03:08:51;93424.22;;;-11.65;100.00
39739;BME280;25422;48.286;8.484;2024-01-16T03:11:17;93416.72;;;-11.67;100.00
39739;BME280;25422;48.286;8.484;2024-01-16T03:13:43;93429.41;;;-11.68;100.00
39739;BME280;25422;48.286;8.484;2024-01-16T03:16:10;93428.75;;;-11.74;100.00
39739;BME280;25422;48.286;8.484;2024-01-16T03:18:36;93425.50;;;-11.77;100.00
39739;BME280;25422;48.286;8.484;2024-01-16T03:21:02;93422.00;;;-11.73;100.00
39739;BME280;25422;48.286;8.484;2024-01-16T03:23:28;93418.72;;;-11.75;100.00
39739;BME280;25422;48.286;8.484;2024-01-16T03:25:54;93416.91;;;-11.72;100.00
39739;BME280;25422;48.286;8.484;2024-01-16T03:28:19;93433.91;;;-11.77;100.00
39739;BME280;25422;48.286;8.484;2024-01-16T03:30:46;93439.41;;;-11.89;100.00
39739;BME280;25422;48.286;8.484;2024-01-16T03:33:11;93428.06;;;-12.01;100.00
39739;BME280;25422;48.286;8.484;2024-01-16T03:35:37;93432.88;;;-12.18;100.00
39739;BME280;25422;48.286;8.484;2024-01-16T03:38:02;93431.41;;;-12.24;100.00
39739;BME280;25422;48.286;8.484;2024-01-16T03:40:28;93428.28;;;-12.31;100.00
39739;BME280;25422;48.286;8.484;2024-01-16T03:42:54;93429.56;;;-12.44;100.00
39739;BME280;25422;48.286;8.484;2024-01-16T03:45:19;93426.06;;;-12.40;100.00
39739;BME280;25422;48.286;8.484;2024-01-16T03:47:45;93435.09;;;-12.34;100.00
39739;BME280;25422;48.286;8.484;2024-01-16T03:50:10;93430.06;;;-12.34;100.00
39739;BME280;25422;48.286;8.484;2024-01-16T03:52:36;93426.66;;;-12.33;100.00
39739;BME280;25422;48.286;8.484;2024-01-16T03:55:01;93419.06;;;-12.32;100.00
39739;BME280;25422;48.286;8.484;2024-01-16T03:57:27;93418.34;;;-12.35;100.00
39739;BME280;25422;48.286;8.484;2024-01-16T03:59:52;93419.38;;;-12.41;100.00
39739;BME280;25422;48.286;8.484;2024-01-16T04:02:18;93408.34;;;-12.39;100.00
39739;BME280;25422;48.286;8.484;2024-01-16T04:04:43;93405.22;;;-12.45;100.00
39739;BME280;25422;48.286;8.484;2024-01-16T04:07:09;93408.03;;;-12.55;100.00
39739;BME280;25422;48.286;8.484;2024-01-16T04:09:34;93414.22;;;-12.63;100.00
39739;BME280;25422;48.286;8.484;2024-01-16T04:12:00;93404.94;;;-12.61;100.00
39739;BME280;25422;48.286;8.484;2024-01-16T04:14:25;93406.91;;;-12.71;100.00
39739;BME280;25422;48.286;8.484;2024-01-16T04:16:51;93399.66;;;-12.80;100.00
39739;BME280;25422;48.286;8.484;2024-01-16T04:19:16;93401.78;;;-12.93;100.00
39739;BME280;25422;48.286;8.484;2024-01-16T04:21:42;93399.59;;;-13.04;100.00
39739;BME280;25422;48.286;8.484;2024-01-16T04:24:07;93403.03;;;-13.07;100.00
39739;BME280;25422;48.286;8.484;2024-01-16T04:26:35;93398.47;;;-12.95;100.00
39739;BME280;25422;48.286;8.484;2024-01-16T04:29:01;93409.09;;;-12.85;100.00
39739;BME280;25422;48.286;8.484;2024-01-16T04:31:27;93411.16;;;-12.98;100.00
39739;BME280;25422;48.286;8.484;2024-01-16T04:33:53;93417.19;;;-13.02;100.00
39739;BME280;25422;48.286;8.484;2024-01-16T04:36:18;93412.09;;;-13.01;100.00
39739;BME280;25422;48.286;8.484;2024-01-16T04:38:43;93406.91;;;-12.96;100.00
39739;BME280;25422;48.286;8.484;2024-01-16T04:41:09;93408.59;;;-12.97;100.00
39739;BME280;25422;48.286;8.484;2024-01-16T04:43:35;93408.53;;;-12.94;100.00
39739;BME280;25422;48.286;8.484;2024-01-16T04:46:00;93409.38;;;-12.95;100.00
39739;BME280;25422;48.286;8.484;2024-01-16T04:48:26;93408.69;;;-13.00;100.00
39739;BME280;25422;48.286;8.484;2024-01-16T04:50:51;93394.38;;;-12.98;100.00
39739;BME280;25422;48.286;8.484;2024-01-16T04:53:17;93395.53;;;-13.08;100.00
39739;BME280;25422;48.286;8.484;2024-01-16T04:55:43;93393.13;;;-13.11;100.00
39739;BME280;25422;48.286;8.484;2024-01-16T04:58:08;93392.34;;;-13.13;100.00
39739;BME280;25422;48.286;8.484;2024-01-16T05:00:33;93388.75;;;-13.06;100.00
39739;BME280;25422;48.286;8.484;2024-01-16T05:02:59;93378.66;;;-13.06;100.00
39739;BME280;25422;48.286;8.484;2024-01-16T05:05:24;93376.88;;;-13.02;100.00
39739;BME280;25422;48.286;8.484;2024-01-16T05:07:50;93365.16;;;-13.03;100.00
39739;BME280;25422;48.286;8.484;2024-01-16T05:10:16;93367.69;;;-13.03;100.00
39739;BME280;25422;48.286;8.484;2024-01-16T05:12:41;93373.91;;;-13.14;100.00
39739;BME280;25422;48.286;8.484;2024-01-16T05:15:07;93366.59;;;-13.22;100.00
39739;BME280;25422;48.286;8.484;2024-01-16T05:17:34;93352.34;;;-13.23;100.00
39739;BME280;25422;48.286;8.484;2024-01-16T05:20:01;93362.03;;;-13.10;100.00
39739;BME280;25422;48.286;8.484;2024-01-16T05:22:29;93361.03;;;-13.06;100.00
39739;BME280;25422;48.286;8.484;2024-01-16T05:24:54;93354.44;;;-13.09;100.00
39739;BME280;25422;48.286;8.484;2024-01-16T05:27:19;93350.97;;;-13.06;100.00
39739;BME280;25422;48.286;8.484;2024-01-16T05:29:45;93352.91;;;-13.14;100.00
39739;BME280;25422;48.286;8.484;2024-01-16T05:32:10;93350.41;;;-13.14;100.00
39739;BME280;25422;48.286;8.484;2024-01-16T05:34:36;93350.47;;;-13.16;100.00
39739;BME280;25422;48.286;8.484;2024-01-16T05:37:02;93346.34;;;-13.18;100.00
39739;BME280;25422;48.286;8.484;2024-01-16T05:39:28;93356.22;;;-13.12;100.00
39739;BME280;25422;48.286;8.484;2024-01-16T05:41:53;93353.53;;;-13.08;100.00
39739;BME280;25422;48.286;8.484;2024-01-16T05:44:18;93351.19;;;-13.12;100.00
39739;BME280;25422;48.286;8.484;2024-01-16T05:46:44;93350.09;;;-13.05;100.00
39739;BME280;25422;48.286;8.484;2024-01-16T05:49:09;93347.34;;;-12.97;100.00
39739;BME280;25422;48.286;8.484;2024-01-16T05:51:35;93352.22;;;-12.93;100.00
39739;BME280;25422;48.286;8.484;2024-01-16T05:54:00;93355.31;;;-12.84;100.00
39739;BME280;25422;48.286;8.484;2024-01-16T05:56:26;93363.13;;;-12.67;100.00
39739;BME280;25422;48.286;8.484;2024-01-16T05:58:51;93355.75;;;-12.48;100.00
39739;BME280;25422;48.286;8.484;2024-01-16T06:01:17;93356.31;;;-12.40;100.00
39739;BME280;25422;48.286;8.484;2024-01-16T06:03:42;93355.47;;;-12.40;100.00
39739;BME280;25422;48.286;8.484;2024-01-16T06:06:10;93355.47;;;-12.40;100.00
39739;BME280;25422;48.286;8.484;2024-01-16T06:08:36;93350.44;;;-12.40;100.00
39739;BME280;25422;48.286;8.484;2024-01-16T06:11:01;93351.91;;;-12.34;100.00
39739;BME280;25422;48.286;8.484;2024-01-16T06:13:26;93350.00;;;-12.28;100.00
39739;BME280;25422;48.286;8.484;2024-01-16T06:15:52;93352.44;;;-12.25;100.00
39739;BME280;25422;48.286;8.484;2024-01-16T06:18:17;93349.41;;;-12.34;100.00
39739;BME280;25422;48.286;8.484;2024-01-16T06:20:43;93357.00;;;-12.36;100.00
39739;BME280;25422;48.286;8.484;2024-01-16T06:23:08;93352.09;;;-12.39;100.00
39739;BME280;25422;48.286;8.484;2024-01-16T06:25:34;93362.59;;;-12.51;100.00
39739;BME280;25422;48.286;8.484;2024-01-16T06:27:59;93366.81;;;-12.52;100.00
39739;BME280;25422;48.286;8.484;2024-01-16T06:30:25;93355.47;;;-12.64;100.00
39739;BME280;25422;48.286;8.484;2024-01-16T06:32:50;93353.19;;;-12.72;100.00
39739;BME280;25422;48.286;8.484;2024-01-16T06:35:16;93349.16;;;-12.76;100.00
39739;BME280;25422;48.286;8.484;2024-01-16T06:37:42;93353.00;;;-12.65;100.00
39739;BME280;25422;48.286;8.484;2024-01-16T06:40:08;93346.16;;;-12.62;100.00
39739;BME280;25422;48.286;8.484;2024-01-16T06:42:34;93351.84;;;-12.57;100.00
39739;BME280;25422;48.286;8.484;2024-01-16T06:45:01;93348.47;;;-12.56;100.00
39739;BME280;25422;48.286;8.484;2024-01-16T06:47:27;93350.88;;;-12.52;100.00
39739;BME280;25422;48.286;8.484;2024-01-16T06:49:52;93346.38;;;-12.44;100.00
39739;BME280;25422;48.286;8.484;2024-01-16T06:52:18;93349.56;;;-12.39;100.00
39739;BME280;25422;48.286;8.484;2024-01-16T06:54:43;93358.34;;;-12.26;100.00
39739;BME280;25422;48.286;8.484;2024-01-16T06:57:09;93355.75;;;-12.24;100.00
39739;BME280;25422;48.286;8.484;2024-01-16T06:59:34;93348.63;;;-12.13;100.00
39739;BME280;25422;48.286;8.484;2024-01-16T07:01:59;93359.16;;;-12.01;100.00
39739;BME280;25422;48.286;8.484;2024-01-16T07:04:25;93362.28;;;-11.95;100.00
39739;BME280;25422;48.286;8.484;2024-01-16T07:06:51;93350.94;;;-11.84;100.00
39739;BME280;25422;48.286;8.484;2024-01-16T07:09:16;93355.63;;;-11.75;100.00
39739;BME280;25422;48.286;8.484;2024-01-16T07:11:43;93350.78;;;-11.80;100.00
39739;BME280;25422;48.286;8.484;2024-01-16T07:14:09;93348.06;;;-11.75;100.00
39739;BME280;25422;48.286;8.484;2024-01-16T07:16:35;93346.72;;;-11.84;100.00
39739;BME280;25422;48.286;8.484;2024-01-16T07:19:01;93345.00;;;-11.83;100.00
39739;BME280;25422;48.286;8.484;2024-01-16T07:21:27;93341.72;;;-11.86;100.00
39739;BME280;25422;48.286;8.484;2024-01-16T07:23:54;93353.09;;;-11.75;100.00
39739;BME280;25422;48.286;8.484;2024-01-16T07:26:19;93344.53;;;-11.71;100.00
39739;BME280;25422;48.286;8.484;2024-01-16T07:28:45;93349.81;;;-11.77;100.00
39739;BME280;25422;48.286;8.484;2024-01-16T07:31:11;93344.06;;;-11.81;100.00
39739;BME280;25422;48.286;8.484;2024-01-16T07:33:36;93338.19;;;-11.81;100.00
39739;BME280;25422;48.286;8.484;2024-01-16T07:36:02;93340.19;;;-11.90;100.00
39739;BME280;25422;48.286;8.484;2024-01-16T07:38:28;93335.19;;;-11.91;100.00
39739;BME280;25422;48.286;8.484;2024-01-16T07:40:53;93333.25;;;-11.84;100.00
39739;BME280;25422;48.286;8.484;2024-01-16T07:43:19;93337.97;;;-11.75;100.00
39739;BME280;25422;48.286;8.484;2024-01-16T07:45:44;93334.09;;;-11.62;100.00
39739;BME280;25422;48.286;8.484;2024-01-16T07:48:10;93343.72;;;-11.49;100.00
39739;BME280;25422;48.286;8.484;2024-01-16T07:50:36;93357.31;;;-11.31;100.00
39739;BME280;25422;48.286;8.484;2024-01-16T07:53:01;93360.84;;;-11.13;100.00
39739;BME280;25422;48.286;8.484;2024-01-16T07:55:27;93356.09;;;-11.00;100.00
39739;BME280;25422;48.286;8.484;2024-01-16T07:57:54;93357.25;;;-10.87;100.00
39739;BME280;25422;48.286;8.484;2024-01-16T08:00:19;93362.44;;;-10.70;100.00
39739;BME280;25422;48.286;8.484;2024-01-16T08:02:44;93371.84;;;-10.53;100.00
39739;BME280;25422;48.286;8.484;2024-01-16T08:05:10;93363.78;;;-10.23;100.00
39739;BME280;25422;48.286;8.484;2024-01-16T08:07:35;93348.69;;;-9.67;100.00
39739;BME280;25422;48.286;8.484;2024-01-16T08:10:01;93347.31;;;-9.19;100.00
39739;BME280;25422;48.286;8.484;2024-01-16T08:12:27;93347.53;;;-8.53;100.00
39739;BME280;25422;48.286;8.484;2024-01-16T08:14:52;93340.88;;;-7.89;100.00
39739;BME280;25422;48.286;8.484;2024-01-16T08:17:17;93338.44;;;-7.74;100.00
39739;BME280;25422;48.286;8.484;2024-01-16T08:19:43;93346.47;;;-7.34;100.00
39739;BME280;25422;48.286;8.484;2024-01-16T08:22:08;93340.03;;;-7.09;100.00
39739;BME280;25422;48.286;8.484;2024-01-16T08:24:33;93332.28;;;-6.92;100.00
39739;BME280;25422;48.286;8.484;2024-01-16T08:26:59;93326.09;;;-6.43;100.00
39739;BME280;25422;48.286;8.484;2024-01-16T08:29:24;93325.16;;;-6.12;100.00
39739;BME280;25422;48.286;8.484;2024-01-16T08:31:50;93324.91;;;-5.65;100.00
39739;BME280;25422;48.286;8.484;2024-01-16T08:34:19;93332.94;;;-4.62;100.00
39739;BME280;25422;48.286;8.484;2024-01-16T08:36:45;93331.25;;;-3.47;100.00
39739;BME280;25422;48.286;8.484;2024-01-16T08:39:10;93331.09;;;-3.20;100.00
39739;BME280;25422;48.286;8.484;2024-01-16T08:41:36;93325.34;;;-2.75;92.81
39739;BME280;25422;48.286;8.484;2024-01-16T08:44:02;93312.91;;;-2.33;86.72
39739;BME280;25422;48.286;8.484;2024-01-16T08:46:27;93316.91;;;-1.61;84.63
39739;BME280;25422;48.286;8.484;2024-01-16T08:48:53;93323.78;;;-1.73;77.83
39739;BME280;25422;48.286;8.484;2024-01-16T08:51:19;93326.84;;;-1.79;82.78
39739;BME280;25422;48.286;8.484;2024-01-16T08:53:45;93327.84;;;-2.15;83.17
39739;BME280;25422;48.286;8.484;2024-01-16T08:56:11;93332.06;;;-2.85;86.86
39739;BME280;25422;48.286;8.484;2024-01-16T08:58:38;93316.19;;;-2.08;84.51
39739;BME280;25422;48.286;8.484;2024-01-16T09:01:04;93318.56;;;-1.94;79.82
39739;BME280;25422;48.286;8.484;2024-01-16T09:03:33;93307.19;;;-1.23;77.42
39739;BME280;25422;48.286;8.484;2024-01-16T09:05:59;93315.06;;;-1.47;75.00
39739;BME280;25422;48.286;8.484;2024-01-16T09:08:28;93315.66;;;-1.66;74.98
39739;BME280;25422;48.286;8.484;2024-01-16T09:10:54;93317.97;;;-2.09;76.72
39739;BME280;25422;48.286;8.484;2024-01-16T09:13:20;93323.59;;;-2.75;81.03
39739;BME280;25422;48.286;8.484;2024-01-16T09:15:49;93316.44;;;-3.55;91.30
39739;BME280;25422;48.286;8.484;2024-01-16T09:18:15;93328.09;;;-3.64;95.71
39739;BME280;25422;48.286;8.484;2024-01-16T09:20:42;93318.66;;;-3.37;94.52
39739;BME280;25422;48.286;8.484;2024-01-16T09:23:08;93322.25;;;-3.16;95.21
39739;BME280;25422;48.286;8.484;2024-01-16T09:25:34;93322.03;;;-2.53;93.37
39739;BME280;25422;48.286;8.484;2024-01-16T09:28:00;93317.03;;;-1.74;91.26
39739;BME280;25422;48.286;8.484;2024-01-16T09:30:25;93320.72;;;-1.10;80.71
39739;BME280;25422;48.286;8.484;2024-01-16T09:32:51;93314.78;;;-1.22;76.62
39739;BME280;25422;48.286;8.484;2024-01-16T09:35:16;93313.63;;;-0.85;72.63
39739;BME280;25422;48.286;8.484;2024-01-16T09:37:42;93306.91;;;-0.97;74.08
39739;BME280;25422;48.286;8.484;2024-01-16T09:40:08;93310.59;;;-0.58;72.30
39739;BME280;25422;48.286;8.484;2024-01-16T09:42:34;93308.53;;;-0.43;70.78
39739;BME280;25422;48.286;8.484;2024-01-16T09:45:02;93312.94;;;-0.33;72.12
39739;BME280;25422;48.286;8.484;2024-01-16T09:47:30;93315.69;;;-0.04;71.42
39739;BME280;25422;48.286;8.484;2024-01-16T09:49:57;93319.16;;;0.78;68.79
39739;BME280;25422;48.286;8.484;2024-01-16T09:52:22;93321.53;;;1.30;64.57
39739;BME280;25422;48.286;8.484;2024-01-16T09:54:48;93312.75;;;1.52;60.46
39739;BME280;25422;48.286;8.484;2024-01-16T09:57:14;93317.25;;;0.80;60.94
39739;BME280;25422;48.286;8.484;2024-01-16T09:59:41;93317.09;;;0.72;63.35
39739;BME280;25422;48.286;8.484;2024-01-16T10:02:09;93311.28;;;0.39;64.33
39739;BME280;25422;48.286;8.484;2024-01-16T10:04:35;93312.19;;;-0.45;67.81
39739;BME280;25422;48.286;8.484;2024-01-16T10:07:01;93300.88;;;0.09;70.09
39739;BME280;25422;48.286;8.484;2024-01-16T10:09:27;93293.22;;;0.19;67.78
39739;BME280;25422;48.286;8.484;2024-01-16T10:11:53;93298.31;;;-0.33;68.83
39739;BME280;25422;48.286;8.484;2024-01-16T10:14:20;93305.78;;;-0.09;69.47
39739;BME280;25422;48.286;8.484;2024-01-16T10:16:55;93293.94;;;-0.21;69.82
39739;BME280;25422;48.286;8.484;2024-01-16T10:19:22;93297.75;;;0.06;67.67
39739;BME280;25422;48.286;8.484;2024-01-16T10:21:48;93285.72;;;-0.57;66.69
39739;BME280;25422;48.286;8.484;2024-01-16T10:24:13;93284.03;;;-0.47;66.65
39739;BME280;25422;48.286;8.484;2024-01-16T10:26:39;93285.78;;;-0.69;67.82
39739;BME280;25422;48.286;8.484;2024-01-16T10:29:04;93280.84;;;-0.93;67.74
39739;BME280;25422;48.286;8.484;2024-01-16T10:31:33;93283.44;;;-1.48;70.80
39739;BME280;25422;48.286;8.484;2024-01-16T10:33:59;93279.81;;;-1.34;72.81
39739;BME280;25422;48.286;8.484;2024-01-16T10:36:24;93276.56;;;-1.59;72.46
39739;BME280;25422;48.286;8.484;2024-01-16T10:38:51;93278.09;;;-1.45;70.86
39739;BME280;25422;48.286;8.484;2024-01-16T10:41:23;93268.88;;;-1.04;70.86
39739;BME280;25422;48.286;8.484;2024-01-16T10:44:10;93269.19;;;-0.64;68.66
39739;BME280;25422;48.286;8.484;2024-01-16T10:46:36;93268.63;;;-1.00;70.02
39739;BME280;25422;48.286;8.484;2024-01-16T10:49:04;93275.56;;;-0.80;69.20
39739;BME280;25422;48.286;8.484;2024-01-16T10:51:31;93279.84;;;-0.69;69.42
39739;BME280;25422;48.286;8.484;2024-01-16T10:54:02;93271.75;;;-0.64;69.32
39739;BME280;25422;48.286;8.484;2024-01-16T10:56:29;93270.19;;;-0.13;66.43
39739;BME280;25422;48.286;8.484;2024-01-16T10:59:15;93271.47;;;0.02;64.67
39739;BME280;25422;48.286;8.484;2024-01-16T11:01:43;93268.84;;;-0.29;66.07
39739;BME280;25422;48.286;8.484;2024-01-16T11:04:12;93259.09;;;-0.04;65.33
39739;BME280;25422;48.286;8.484;2024-01-16T11:06:39;93250.63;;;-0.47;66.19
39739;BME280;25422;48.286;8.484;2024-01-16T11:09:07;93260.16;;;-0.38;66.32
39739;BME280;25422;48.286;8.484;2024-01-16T11:11:33;93266.72;;;-0.24;67.30
39739;BME280;25422;48.286;8.484;2024-01-16T11:14:02;93263.88;;;0.01;65.25
39739;BME280;25422;48.286;8.484;2024-01-16T11:16:31;93267.81;;;0.36;64.76
39739;BME280;25422;48.286;8.484;2024-01-16T11:18:57;93261.97;;;0.84;62.78
39739;BME280;25422;48.286;8.484;2024-01-16T11:21:24;93268.66;;;1.06;62.79
39739;BME280;25422;48.286;8.484;2024-01-16T11:23:51;93262.97;;;1.32;60.46
39739;BME280;25422;48.286;8.484;2024-01-16T11:26:27;93255.22;;;1.03;61.07
39739;BME280;25422;48.286;8.484;2024-01-16T11:28:54;93240.09;;;1.86;59.54
39739;BME280;25422;48.286;8.484;2024-01-16T11:31:31;93234.75;;;1.40;60.00
39739;BME280;25422;48.286;8.484;2024-01-16T11:33:57;93223.22;;;1.92;59.21
39739;BME280;25422;48.286;8.484;2024-01-16T11:39:10;93229.44;;;3.54;53.55
39739;BME280;25422;48.286;8.484;2024-01-16T11:44:49;93221.59;;;2.56;55.66
39739;BME280;25422;48.286;8.484;2024-01-16T11:47:20;93225.72;;;2.95;55.72
39739;BME280;25422;48.286;8.484;2024-01-16T11:49:47;93207.59;;;3.75;54.79
39739;BME280;25422;48.286;8.484;2024-01-16T11:52:13;93200.44;;;3.95;52.81
39739;BME280;25422;48.286;8.484;2024-01-16T11:54:40;93197.97;;;4.54;52.72
39739;BME280;25422;48.286;8.484;2024-01-16T11:59:59;93181.97;;;4.67;51.17
39739;BME280;25422;48.286;8.484;2024-01-16T12:02:49;93181.81;;;4.69;51.76
39739;BME280;25422;48.286;8.484;2024-01-16T12:05:16;93185.09;;;4.36;51.65
39739;BME280;25422;48.286;8.484;2024-01-16T12:07:52;93187.56;;;4.46;51.53
39739;BME280;25422;48.286;8.484;2024-01-16T12:10:21;93179.56;;;4.82;48.38
39739;BME280;25422;48.286;8.484;2024-01-16T12:12:47;93174.56;;;3.95;49.49
39739;BME280;25422;48.286;8.484;2024-01-16T12:15:19;93170.03;;;5.57;45.76
39739;BME280;25422;48.286;8.484;2024-01-16T12:17:58;93162.44;;;5.31;46.50
39739;BME280;25422;48.286;8.484;2024-01-16T12:20:29;93149.06;;;6.08;43.16
39739;BME280;25422;48.286;8.484;2024-01-16T12:22:59;93153.13;;;5.86;44.62
39739;BME280;25422;48.286;8.484;2024-01-16T12:25:29;93149.44;;;5.64;46.28
39739;BME280;25422;48.286;8.484;2024-01-16T12:30:23;93141.84;;;5.46;44.20
39739;BME280;25422;48.286;8.484;2024-01-16T12:32:49;93138.25;;;6.59;44.38
39739;BME280;25422;48.286;8.484;2024-01-16T12:35:20;93132.22;;;6.67;43.67
39739;BME280;25422;48.286;8.484;2024-01-16T12:38:00;93122.00;;;5.78;43.88
39739;BME280;25422;48.286;8.484;2024-01-16T12:40:27;93118.84;;;6.47;43.78
39739;BME280;25422;48.286;8.484;2024-01-16T12:42:53;93115.47;;;6.69;42.00
39739;BME280;25422;48.286;8.484;2024-01-16T12:45:19;93113.47;;;7.26;40.78
39739;BME280;25422;48.286;8.484;2024-01-16T12:47:50;93104.56;;;6.74;42.79
39739;BME280;25422;48.286;8.484;2024-01-16T12:50:23;93102.41;;;6.54;43.46
39739;BME280;25422;48.286;8.484;2024-01-16T12:52:50;93100.72;;;6.62;44.67
39739;BME280;25422;48.286;8.484;2024-01-16T12:55:16;93096.69;;;6.82;42.79
39739;BME280;25422;48.286;8.484;2024-01-16T12:57:43;93091.81;;;5.85;44.83